Aérodrome :
LOGIN :

S'inscrire | Disclaimer

   EN    FR    IT 

 










Légende :    VFR   VFR Marginal   IFR   IFR Intensif   IFR Très Intensif
Visi : 
Plafond : 
>= 8 km
>= 3000ft
5 à 8 km
1000 à 3000 ft
1500m à 5 km
500 à 1000 ft
800 à 1500m
200 à 500 ft
< 800m
< 200 ft
Symboles :   Orages  Brouillard  Fortes neiges  Fortes précipitations  Vent > 20 kt
SIGMETs :   Divers  Orages  Givrage  Turbulence  Onde Orograph.  Cendres Volcan.






- Altitude de l'aérodrome : 46 ft
- Code IATA : PAF


LPMT - Montijo Air Base

DERNIER METAR :
  • 051400Z 34006KT 310V020 CAVOK 33/16 Q1010

METARs EXPIRÉS :
  • 051300Z 03007KT CAVOK 32/17 Q1010
  • 051200Z 03006KT 010V080 CAVOK 30/17 Q1011
  • 051100Z 03006KT 350V060 CAVOK 27/17 Q1011

TAF TAF LPMT
Valide du 05 à 12h jusqu'au 06 à 12h UTC


051101Z 0512/0612 33008KT CAVOK
BECMG 0603/0605 VRB02KT



MET'MAP, la Météo Aéronautique d'un coup d'oeil ! - Copyright ORBIFLY Décembre 2007 - Disclaimer

ORBIFLY MET'MAP TEAM :

Programmation & Développement : Alexandra Zaïnal
Sur une idée originale de : Baudouin d'Aumeries
Assistance à la programmation : Marc-Olivier Méhu
Soutien technique & logistique : Manuel Goepfert

Contact : metmap@orbifly.com




SOURCES & CREDITS :

   NOAA